sensor_id;sensor_type;location;lat;lon;timestamp;P1;durP1;ratioP1;P2;durP2;ratioP2
16472;SDS011;8347;52.486;13.432;2023-05-29T00:00:14;9.05;;;3.45;;
16472;SDS011;8347;52.486;13.432;2023-05-29T00:03:06;10.13;;;4.97;;
16472;SDS011;8347;52.486;13.432;2023-05-29T00:05:54;10.25;;;3.72;;
16472;SDS011;8347;52.486;13.432;2023-05-29T00:08:41;5.97;;;3.63;;
16472;SDS011;8347;52.486;13.432;2023-05-29T00:11:27;6.30;;;3.47;;
16472;SDS011;8347;52.486;13.432;2023-05-29T00:14:14;9.02;;;2.88;;
16472;SDS011;8347;52.486;13.432;2023-05-29T00:17:01;6.75;;;3.15;;
16472;SDS011;8347;52.486;13.432;2023-05-29T00:19:48;7.30;;;3.08;;
16472;SDS011;8347;52.486;13.432;2023-05-29T00:22:35;9.18;;;3.53;;
16472;SDS011;8347;52.486;13.432;2023-05-29T00:25:25;7.75;;;3.13;;
16472;SDS011;8347;52.486;13.432;2023-05-29T00:28:12;8.90;;;3.38;;
16472;SDS011;8347;52.486;13.432;2023-05-29T00:30:59;7.75;;;3.20;;
16472;SDS011;8347;52.486;13.432;2023-05-29T00:33:46;14.65;;;3.63;;
16472;SDS011;8347;52.486;13.432;2023-05-29T00:36:33;8.32;;;3.45;;
16472;SDS011;8347;52.486;13.432;2023-05-29T00:39:19;6.78;;;3.15;;
16472;SDS011;8347;52.486;13.432;2023-05-29T00:42:06;6.25;;;3.55;;
16472;SDS011;8347;52.486;13.432;2023-05-29T00:44:52;5.88;;;3.05;;
16472;SDS011;8347;52.486;13.432;2023-05-29T00:47:40;11.23;;;3.60;;
16472;SDS011;8347;52.486;13.432;2023-05-29T00:50:27;9.45;;;3.42;;
16472;SDS011;8347;52.486;13.432;2023-05-29T00:53:14;13.50;;;3.83;;
16472;SDS011;8347;52.486;13.432;2023-05-29T00:56:01;9.77;;;3.67;;
16472;SDS011;8347;52.486;13.432;2023-05-29T00:58:49;6.10;;;3.47;;
16472;SDS011;8347;52.486;13.432;2023-05-29T01:04:25;5.85;;;3.38;;
16472;SDS011;8347;52.486;13.432;2023-05-29T01:07:12;7.38;;;3.72;;
16472;SDS011;8347;52.486;13.432;2023-05-29T01:10:00;8.35;;;3.28;;
16472;SDS011;8347;52.486;13.432;2023-05-29T01:12:51;11.45;;;3.35;;
16472;SDS011;8347;52.486;13.432;2023-05-29T01:15:52;5.75;;;3.25;;
16472;SDS011;8347;52.486;13.432;2023-05-29T01:24:49;15.32;;;4.40;;
16472;SDS011;8347;52.486;13.432;2023-05-29T01:27:36;8.68;;;2.92;;
16472;SDS011;8347;52.486;13.432;2023-05-29T01:30:25;7.03;;;4.07;;
16472;SDS011;8347;52.486;13.432;2023-05-29T01:33:14;8.52;;;3.38;;
16472;SDS011;8347;52.486;13.432;2023-05-29T01:36:01;5.60;;;3.38;;
16472;SDS011;8347;52.486;13.432;2023-05-29T01:38:48;9.77;;;3.10;;
16472;SDS011;8347;52.486;13.432;2023-05-29T01:41:36;8.43;;;3.97;;
16472;SDS011;8347;52.486;13.432;2023-05-29T01:44:25;5.43;;;2.58;;
16472;SDS011;8347;52.486;13.432;2023-05-29T01:47:13;11.45;;;3.75;;
16472;SDS011;8347;52.486;13.432;2023-05-29T01:49:59;7.95;;;3.25;;
16472;SDS011;8347;52.486;13.432;2023-05-29T01:52:48;7.57;;;4.07;;
16472;SDS011;8347;52.486;13.432;2023-05-29T01:55:34;7.72;;;3.47;;
16472;SDS011;8347;52.486;13.432;2023-05-29T01:58:21;8.50;;;3.95;;
16472;SDS011;8347;52.486;13.432;2023-05-29T02:01:09;5.65;;;3.47;;
16472;SDS011;8347;52.486;13.432;2023-05-29T02:03:56;8.32;;;4.00;;
16472;SDS011;8347;52.486;13.432;2023-05-29T02:06:43;10.50;;;4.22;;
16472;SDS011;8347;52.486;13.432;2023-05-29T02:09:29;8.25;;;3.60;;
16472;SDS011;8347;52.486;13.432;2023-05-29T02:12:16;6.65;;;3.00;;
16472;SDS011;8347;52.486;13.432;2023-05-29T02:15:03;10.82;;;3.75;;
16472;SDS011;8347;52.486;13.432;2023-05-29T02:17:49;10.20;;;4.20;;
16472;SDS011;8347;52.486;13.432;2023-05-29T02:20:37;10.80;;;3.40;;
16472;SDS011;8347;52.486;13.432;2023-05-29T02:23:24;10.35;;;3.85;;
16472;SDS011;8347;52.486;13.432;2023-05-29T02:26:11;8.77;;;3.42;;
16472;SDS011;8347;52.486;13.432;2023-05-29T02:28:58;9.02;;;4.18;;
16472;SDS011;8347;52.486;13.432;2023-05-29T02:31:46;8.07;;;3.70;;
16472;SDS011;8347;52.486;13.432;2023-05-29T02:34:33;7.28;;;3.20;;
16472;SDS011;8347;52.486;13.432;2023-05-29T02:37:19;6.43;;;3.50;;
16472;SDS011;8347;52.486;13.432;2023-05-29T02:40:05;7.28;;;3.78;;
16472;SDS011;8347;52.486;13.432;2023-05-29T02:42:57;9.70;;;3.42;;
16472;SDS011;8347;52.486;13.432;2023-05-29T02:45:43;6.78;;;3.50;;
16472;SDS011;8347;52.486;13.432;2023-05-29T02:48:30;6.28;;;3.65;;
16472;SDS011;8347;52.486;13.432;2023-05-29T02:51:16;8.50;;;4.18;;
16472;SDS011;8347;52.486;13.432;2023-05-29T02:54:03;8.77;;;3.65;;
16472;SDS011;8347;52.486;13.432;2023-05-29T02:56:50;7.28;;;4.15;;
16472;SDS011;8347;52.486;13.432;2023-05-29T02:59:37;6.80;;;3.67;;
16472;SDS011;8347;52.486;13.432;2023-05-29T03:02:24;9.15;;;4.28;;
16472;SDS011;8347;52.486;13.432;2023-05-29T03:05:11;9.25;;;3.97;;
16472;SDS011;8347;52.486;13.432;2023-05-29T03:07:57;7.60;;;3.53;;
16472;SDS011;8347;52.486;13.432;2023-05-29T03:10:44;6.88;;;3.70;;
16472;SDS011;8347;52.486;13.432;2023-05-29T03:13:30;8.18;;;3.85;;
16472;SDS011;8347;52.486;13.432;2023-05-29T03:16:24;8.38;;;4.00;;
16472;SDS011;8347;52.486;13.432;2023-05-29T03:19:11;11.25;;;4.00;;
16472;SDS011;8347;52.486;13.432;2023-05-29T03:21:57;7.03;;;4.18;;
16472;SDS011;8347;52.486;13.432;2023-05-29T03:24:44;8.52;;;3.70;;
16472;SDS011;8347;52.486;13.432;2023-05-29T03:27:32;8.40;;;3.75;;
16472;SDS011;8347;52.486;13.432;2023-05-29T03:30:26;7.85;;;3.40;;
16472;SDS011;8347;52.486;13.432;2023-05-29T03:33:13;8.25;;;3.50;;
16472;SDS011;8347;52.486;13.432;2023-05-29T03:36:23;10.52;;;4.05;;
16472;SDS011;8347;52.486;13.432;2023-05-29T03:39:10;10.98;;;4.30;;
16472;SDS011;8347;52.486;13.432;2023-05-29T03:41:59;11.30;;;4.13;;
16472;SDS011;8347;52.486;13.432;2023-05-29T03:44:46;7.63;;;3.78;;
16472;SDS011;8347;52.486;13.432;2023-05-29T03:47:33;7.35;;;4.13;;
16472;SDS011;8347;52.486;13.432;2023-05-29T03:50:20;7.97;;;3.42;;
16472;SDS011;8347;52.486;13.432;2023-05-29T03:53:07;7.20;;;3.50;;
16472;SDS011;8347;52.486;13.432;2023-05-29T03:55:53;10.35;;;3.97;;
16472;SDS011;8347;52.486;13.432;2023-05-29T03:58:40;6.28;;;3.60;;
16472;SDS011;8347;52.486;13.432;2023-05-29T04:01:27;8.45;;;3.80;;
16472;SDS011;8347;52.486;13.432;2023-05-29T04:04:14;13.15;;;4.07;;
16472;SDS011;8347;52.486;13.432;2023-05-29T04:07:00;10.65;;;3.58;;
16472;SDS011;8347;52.486;13.432;2023-05-29T04:09:47;6.80;;;3.20;;
16472;SDS011;8347;52.486;13.432;2023-05-29T04:12:33;6.18;;;3.03;;
16472;SDS011;8347;52.486;13.432;2023-05-29T04:15:20;8.30;;;3.45;;
16472;SDS011;8347;52.486;13.432;2023-05-29T04:18:07;5.82;;;2.72;;
16472;SDS011;8347;52.486;13.432;2023-05-29T04:20:54;8.07;;;3.25;;
16472;SDS011;8347;52.486;13.432;2023-05-29T04:23:40;4.32;;;3.22;;
16472;SDS011;8347;52.486;13.432;2023-05-29T04:26:27;7.65;;;3.95;;
16472;SDS011;8347;52.486;13.432;2023-05-29T04:29:13;7.88;;;3.63;;
16472;SDS011;8347;52.486;13.432;2023-05-29T04:32:01;5.18;;;3.20;;
16472;SDS011;8347;52.486;13.432;2023-05-29T04:34:49;5.28;;;3.47;;
16472;SDS011;8347;52.486;13.432;2023-05-29T04:37:36;8.50;;;3.30;;
16472;SDS011;8347;52.486;13.432;2023-05-29T04:40:25;8.38;;;4.05;;
16472;SDS011;8347;52.486;13.432;2023-05-29T04:43:12;6.65;;;3.78;;
16472;SDS011;8347;52.486;13.432;2023-05-29T04:46:17;8.13;;;3.05;;
16472;SDS011;8347;52.486;13.432;2023-05-29T04:49:05;7.50;;;3.28;;
16472;SDS011;8347;52.486;13.432;2023-05-29T04:51:51;6.40;;;3.40;;
16472;SDS011;8347;52.486;13.432;2023-05-29T04:54:38;4.97;;;2.55;;
16472;SDS011;8347;52.486;13.432;2023-05-29T04:57:24;6.07;;;3.15;;
16472;SDS011;8347;52.486;13.432;2023-05-29T05:00:11;5.50;;;3.08;;
16472;SDS011;8347;52.486;13.432;2023-05-29T05:03:00;6.28;;;3.10;;
16472;SDS011;8347;52.486;13.432;2023-05-29T05:05:46;9.38;;;3.70;;
16472;SDS011;8347;52.486;13.432;2023-05-29T05:08:35;8.10;;;3.05;;
16472;SDS011;8347;52.486;13.432;2023-05-29T05:11:22;11.85;;;3.45;;
16472;SDS011;8347;52.486;13.432;2023-05-29T05:14:09;13.68;;;3.55;;
16472;SDS011;8347;52.486;13.432;2023-05-29T05:16:56;7.97;;;3.95;;
16472;SDS011;8347;52.486;13.432;2023-05-29T05:19:42;5.93;;;2.95;;
16472;SDS011;8347;52.486;13.432;2023-05-29T05:22:29;3.70;;;2.60;;
16472;SDS011;8347;52.486;13.432;2023-05-29T05:25:16;7.03;;;3.20;;
16472;SDS011;8347;52.486;13.432;2023-05-29T05:28:05;5.88;;;2.95;;
16472;SDS011;8347;52.486;13.432;2023-05-29T05:30:53;3.47;;;2.20;;
16472;SDS011;8347;52.486;13.432;2023-05-29T05:33:40;6.93;;;2.55;;
16472;SDS011;8347;52.486;13.432;2023-05-29T05:36:26;3.53;;;2.42;;
16472;SDS011;8347;52.486;13.432;2023-05-29T05:39:18;3.55;;;2.45;;
16472;SDS011;8347;52.486;13.432;2023-05-29T05:42:06;3.70;;;2.50;;
16472;SDS011;8347;52.486;13.432;2023-05-29T05:45:06;3.67;;;2.05;;
16472;SDS011;8347;52.486;13.432;2023-05-29T05:47:53;4.20;;;2.60;;
16472;SDS011;8347;52.486;13.432;2023-05-29T05:50:43;4.75;;;2.15;;
16472;SDS011;8347;52.486;13.432;2023-05-29T05:53:31;5.13;;;2.67;;
16472;SDS011;8347;52.486;13.432;2023-05-29T05:56:17;4.80;;;2.60;;
16472;SDS011;8347;52.486;13.432;2023-05-29T05:59:04;4.57;;;2.13;;
16472;SDS011;8347;52.486;13.432;2023-05-29T06:01:51;8.70;;;2.85;;
16472;SDS011;8347;52.486;13.432;2023-05-29T06:04:37;3.53;;;2.15;;
16472;SDS011;8347;52.486;13.432;2023-05-29T06:07:24;4.70;;;2.42;;
16472;SDS011;8347;52.486;13.432;2023-05-29T06:10:11;4.85;;;2.22;;
16472;SDS011;8347;52.486;13.432;2023-05-29T06:12:58;4.38;;;2.20;;
16472;SDS011;8347;52.486;13.432;2023-05-29T06:15:52;5.43;;;2.38;;
16472;SDS011;8347;52.486;13.432;2023-05-29T06:18:38;3.45;;;2.40;;
16472;SDS011;8347;52.486;13.432;2023-05-29T06:21:25;3.50;;;2.40;;
16472;SDS011;8347;52.486;13.432;2023-05-29T06:24:14;5.28;;;2.88;;
16472;SDS011;8347;52.486;13.432;2023-05-29T06:27:01;5.10;;;2.28;;
16472;SDS011;8347;52.486;13.432;2023-05-29T06:29:47;3.22;;;1.95;;
16472;SDS011;8347;52.486;13.432;2023-05-29T06:32:34;4.43;;;2.03;;
16472;SDS011;8347;52.486;13.432;2023-05-29T06:35:20;2.90;;;1.80;;
16472;SDS011;8347;52.486;13.432;2023-05-29T06:38:07;3.17;;;2.10;;
16472;SDS011;8347;52.486;13.432;2023-05-29T06:40:53;2.42;;;1.88;;
16472;SDS011;8347;52.486;13.432;2023-05-29T06:43:40;3.00;;;1.98;;
16472;SDS011;8347;52.486;13.432;2023-05-29T06:46:28;4.65;;;2.72;;
16472;SDS011;8347;52.486;13.432;2023-05-29T06:49:14;2.83;;;2.10;;
16472;SDS011;8347;52.486;13.432;2023-05-29T06:52:01;3.30;;;1.85;;
16472;SDS011;8347;52.486;13.432;2023-05-29T06:55:07;2.63;;;1.80;;
16472;SDS011;8347;52.486;13.432;2023-05-29T06:57:54;5.65;;;3.03;;
16472;SDS011;8347;52.486;13.432;2023-05-29T07:00:43;3.08;;;1.95;;
16472;SDS011;8347;52.486;13.432;2023-05-29T07:03:41;4.70;;;2.33;;
16472;SDS011;8347;52.486;13.432;2023-05-29T07:06:27;2.83;;;2.30;;
16472;SDS011;8347;52.486;13.432;2023-05-29T07:09:14;3.70;;;2.13;;
16472;SDS011;8347;52.486;13.432;2023-05-29T07:12:02;3.33;;;2.05;;
16472;SDS011;8347;52.486;13.432;2023-05-29T07:14:48;4.03;;;1.98;;
16472;SDS011;8347;52.486;13.432;2023-05-29T07:17:36;4.05;;;1.90;;
16472;SDS011;8347;52.486;13.432;2023-05-29T07:20:32;5.35;;;2.45;;
16472;SDS011;8347;52.486;13.432;2023-05-29T07:23:19;5.63;;;2.00;;
16472;SDS011;8347;52.486;13.432;2023-05-29T07:26:06;6.60;;;2.60;;
16472;SDS011;8347;52.486;13.432;2023-05-29T07:28:52;3.05;;;2.05;;
16472;SDS011;8347;52.486;13.432;2023-05-29T07:31:39;3.03;;;2.20;;
16472;SDS011;8347;52.486;13.432;2023-05-29T07:34:26;6.55;;;2.28;;
16472;SDS011;8347;52.486;13.432;2023-05-29T07:37:12;1.98;;;1.60;;
16472;SDS011;8347;52.486;13.432;2023-05-29T07:39:59;3.20;;;2.42;;
16472;SDS011;8347;52.486;13.432;2023-05-29T07:43:24;3.20;;;1.83;;
16472;SDS011;8347;52.486;13.432;2023-05-29T07:46:18;2.47;;;1.58;;
16472;SDS011;8347;52.486;13.432;2023-05-29T07:49:04;3.45;;;1.90;;
16472;SDS011;8347;52.486;13.432;2023-05-29T07:51:51;4.05;;;2.40;;
16472;SDS011;8347;52.486;13.432;2023-05-29T07:54:39;2.47;;;1.88;;
16472;SDS011;8347;52.486;13.432;2023-05-29T07:57:27;2.33;;;1.83;;
16472;SDS011;8347;52.486;13.432;2023-05-29T08:00:16;2.03;;;1.58;;
16472;SDS011;8347;52.486;13.432;2023-05-29T08:03:05;3.60;;;1.90;;
16472;SDS011;8347;52.486;13.432;2023-05-29T08:06:12;2.75;;;1.42;;
16472;SDS011;8347;52.486;13.432;2023-05-29T08:08:59;3.10;;;1.77;;
16472;SDS011;8347;52.486;13.432;2023-05-29T08:11:46;3.47;;;1.92;;
16472;SDS011;8347;52.486;13.432;2023-05-29T08:14:33;3.42;;;1.95;;
16472;SDS011;8347;52.486;13.432;2023-05-29T08:17:21;2.80;;;1.70;;
16472;SDS011;8347;52.486;13.432;2023-05-29T08:20:08;4.82;;;2.35;;
16472;SDS011;8347;52.486;13.432;2023-05-29T08:22:56;2.22;;;1.80;;
16472;SDS011;8347;52.486;13.432;2023-05-29T08:25:42;2.20;;;1.73;;
16472;SDS011;8347;52.486;13.432;2023-05-29T08:28:28;4.32;;;2.17;;
16472;SDS011;8347;52.486;13.432;2023-05-29T08:31:15;3.08;;;1.65;;
16472;SDS011;8347;52.486;13.432;2023-05-29T08:34:02;3.42;;;1.95;;
16472;SDS011;8347;52.486;13.432;2023-05-29T08:36:48;3.83;;;2.10;;
16472;SDS011;8347;52.486;13.432;2023-05-29T08:39:37;3.97;;;2.35;;
16472;SDS011;8347;52.486;13.432;2023-05-29T08:42:29;3.13;;;1.98;;
16472;SDS011;8347;52.486;13.432;2023-05-29T08:45:19;3.05;;;2.33;;
16472;SDS011;8347;52.486;13.432;2023-05-29T08:48:07;2.75;;;2.15;;
16472;SDS011;8347;52.486;13.432;2023-05-29T08:50:56;3.00;;;2.17;;
16472;SDS011;8347;52.486;13.432;2023-05-29T08:53:44;7.85;;;2.13;;
16472;SDS011;8347;52.486;13.432;2023-05-29T08:56:31;4.18;;;2.30;;
16472;SDS011;8347;52.486;13.432;2023-05-29T08:59:19;3.78;;;2.28;;
16472;SDS011;8347;52.486;13.432;2023-05-29T09:02:06;3.33;;;2.30;;
16472;SDS011;8347;52.486;13.432;2023-05-29T09:04:52;3.40;;;2.20;;
16472;SDS011;8347;52.486;13.432;2023-05-29T09:07:40;8.30;;;3.20;;
16472;SDS011;8347;52.486;13.432;2023-05-29T09:10:27;6.82;;;2.70;;
16472;SDS011;8347;52.486;13.432;2023-05-29T09:13:13;4.60;;;2.90;;
16472;SDS011;8347;52.486;13.432;2023-05-29T09:16:00;5.60;;;2.45;;
16472;SDS011;8347;52.486;13.432;2023-05-29T09:18:48;4.72;;;2.50;;
16472;SDS011;8347;52.486;13.432;2023-05-29T09:21:35;4.40;;;2.50;;
16472;SDS011;8347;52.486;13.432;2023-05-29T09:24:22;3.47;;;2.33;;
16472;SDS011;8347;52.486;13.432;2023-05-29T09:27:09;3.60;;;2.30;;
16472;SDS011;8347;52.486;13.432;2023-05-29T09:29:58;6.60;;;2.40;;
16472;SDS011;8347;52.486;13.432;2023-05-29T09:32:46;5.80;;;2.72;;
16472;SDS011;8347;52.486;13.432;2023-05-29T09:35:40;4.55;;;2.75;;
16472;SDS011;8347;52.486;13.432;2023-05-29T09:38:27;5.97;;;2.78;;
16472;SDS011;8347;52.486;13.432;2023-05-29T09:41:22;4.88;;;2.42;;
16472;SDS011;8347;52.486;13.432;2023-05-29T09:44:12;4.53;;;3.00;;
16472;SDS011;8347;52.486;13.432;2023-05-29T09:46:59;2.70;;;1.90;;
16472;SDS011;8347;52.486;13.432;2023-05-29T09:49:46;4.00;;;2.50;;
16472;SDS011;8347;52.486;13.432;2023-05-29T09:52:32;4.90;;;3.13;;
16472;SDS011;8347;52.486;13.432;2023-05-29T09:55:22;3.55;;;2.30;;
16472;SDS011;8347;52.486;13.432;2023-05-29T09:58:12;4.15;;;2.30;;
16472;SDS011;8347;52.486;13.432;2023-05-29T10:01:01;5.03;;;3.42;;
16472;SDS011;8347;52.486;13.432;2023-05-29T10:03:48;6.05;;;2.78;;
16472;SDS011;8347;52.486;13.432;2023-05-29T10:06:34;6.70;;;2.88;;
16472;SDS011;8347;52.486;13.432;2023-05-29T10:09:22;5.60;;;2.80;;
16472;SDS011;8347;52.486;13.432;2023-05-29T10:12:11;4.32;;;2.55;;
16472;SDS011;8347;52.486;13.432;2023-05-29T10:14:59;5.80;;;3.00;;
16472;SDS011;8347;52.486;13.432;2023-05-29T10:17:50;14.20;;;3.60;;
16472;SDS011;8347;52.486;13.432;2023-05-29T10:20:37;5.20;;;2.97;;
16472;SDS011;8347;52.486;13.432;2023-05-29T10:23:24;4.40;;;2.90;;
16472;SDS011;8347;52.486;13.432;2023-05-29T10:26:12;4.43;;;2.75;;
16472;SDS011;8347;52.486;13.432;2023-05-29T10:29:20;5.20;;;3.10;;
16472;SDS011;8347;52.486;13.432;2023-05-29T10:32:25;4.45;;;2.70;;
16472;SDS011;8347;52.486;13.432;2023-05-29T10:35:58;4.50;;;3.10;;
16472;SDS011;8347;52.486;13.432;2023-05-29T10:38:23;5.80;;;2.90;;
16472;SDS011;8347;52.486;13.432;2023-05-29T10:47:22;5.10;;;3.53;;
16472;SDS011;8347;52.486;13.432;2023-05-29T10:50:09;6.40;;;2.97;;
16472;SDS011;8347;52.486;13.432;2023-05-29T10:52:56;4.70;;;2.22;;
16472;SDS011;8347;52.486;13.432;2023-05-29T10:55:42;4.90;;;2.97;;
16472;SDS011;8347;52.486;13.432;2023-05-29T10:58:30;3.85;;;2.65;;
16472;SDS011;8347;52.486;13.432;2023-05-29T11:01:17;4.82;;;2.65;;
16472;SDS011;8347;52.486;13.432;2023-05-29T11:07:05;4.20;;;2.65;;
16472;SDS011;8347;52.486;13.432;2023-05-29T11:09:54;4.18;;;2.67;;
16472;SDS011;8347;52.486;13.432;2023-05-29T11:12:56;5.38;;;3.13;;
16472;SDS011;8347;52.486;13.432;2023-05-29T11:15:46;4.35;;;2.80;;
16472;SDS011;8347;52.486;13.432;2023-05-29T11:18:38;2.65;;;2.40;;
16472;SDS011;8347;52.486;13.432;2023-05-29T11:24:30;6.38;;;2.80;;
16472;SDS011;8347;52.486;13.432;2023-05-29T11:27:18;4.65;;;2.95;;
16472;SDS011;8347;52.486;13.432;2023-05-29T11:30:05;3.42;;;2.25;;
16472;SDS011;8347;52.486;13.432;2023-05-29T11:32:52;3.63;;;2.72;;
16472;SDS011;8347;52.486;13.432;2023-05-29T11:35:39;2.72;;;2.40;;
16472;SDS011;8347;52.486;13.432;2023-05-29T11:38:28;7.22;;;3.65;;
16472;SDS011;8347;52.486;13.432;2023-05-29T11:41:16;7.68;;;2.60;;
16472;SDS011;8347;52.486;13.432;2023-05-29T11:44:04;5.00;;;2.28;;
16472;SDS011;8347;52.486;13.432;2023-05-29T11:47:01;4.97;;;2.47;;
16472;SDS011;8347;52.486;13.432;2023-05-29T11:49:48;4.82;;;2.30;;
16472;SDS011;8347;52.486;13.432;2023-05-29T11:52:35;10.50;;;2.20;;
16472;SDS011;8347;52.486;13.432;2023-05-29T11:55:31;6.72;;;2.65;;
16472;SDS011;8347;52.486;13.432;2023-05-29T11:58:18;5.22;;;2.53;;
16472;SDS011;8347;52.486;13.432;2023-05-29T12:01:07;5.30;;;2.58;;
16472;SDS011;8347;52.486;13.432;2023-05-29T12:03:54;4.07;;;2.85;;
16472;SDS011;8347;52.486;13.432;2023-05-29T12:06:41;4.95;;;2.40;;
16472;SDS011;8347;52.486;13.432;2023-05-29T12:09:28;4.78;;;2.40;;
16472;SDS011;8347;52.486;13.432;2023-05-29T12:12:15;4.72;;;2.60;;
16472;SDS011;8347;52.486;13.432;2023-05-29T12:15:02;7.38;;;3.13;;
16472;SDS011;8347;52.486;13.432;2023-05-29T12:17:51;5.22;;;3.67;;
16472;SDS011;8347;52.486;13.432;2023-05-29T12:20:38;4.43;;;2.35;;
16472;SDS011;8347;52.486;13.432;2023-05-29T12:23:25;4.53;;;2.90;;
16472;SDS011;8347;52.486;13.432;2023-05-29T12:26:12;2.85;;;2.17;;
16472;SDS011;8347;52.486;13.432;2023-05-29T12:28:58;3.83;;;2.55;;
16472;SDS011;8347;52.486;13.432;2023-05-29T12:31:57;4.38;;;2.95;;
16472;SDS011;8347;52.486;13.432;2023-05-29T12:34:48;8.15;;;2.65;;
16472;SDS011;8347;52.486;13.432;2023-05-29T12:37:34;4.55;;;2.67;;
16472;SDS011;8347;52.486;13.432;2023-05-29T12:40:22;6.47;;;2.95;;
16472;SDS011;8347;52.486;13.432;2023-05-29T12:43:09;4.90;;;2.70;;
16472;SDS011;8347;52.486;13.432;2023-05-29T12:45:56;4.88;;;2.83;;
16472;SDS011;8347;52.486;13.432;2023-05-29T12:48:42;4.57;;;2.70;;
16472;SDS011;8347;52.486;13.432;2023-05-29T12:51:29;5.88;;;2.58;;
16472;SDS011;8347;52.486;13.432;2023-05-29T12:54:17;3.85;;;2.22;;
16472;SDS011;8347;52.486;13.432;2023-05-29T12:57:04;5.35;;;2.85;;
16472;SDS011;8347;52.486;13.432;2023-05-29T12:59:51;5.72;;;3.55;;
16472;SDS011;8347;52.486;13.432;2023-05-29T13:02:38;7.00;;;2.65;;
16472;SDS011;8347;52.486;13.432;2023-05-29T13:05:25;8.93;;;5.43;;
16472;SDS011;8347;52.486;13.432;2023-05-29T13:08:11;5.40;;;3.47;;
16472;SDS011;8347;52.486;13.432;2023-05-29T13:10:58;5.43;;;2.45;;
16472;SDS011;8347;52.486;13.432;2023-05-29T13:13:44;7.00;;;2.80;;
16472;SDS011;8347;52.486;13.432;2023-05-29T13:16:32;5.18;;;2.17;;
16472;SDS011;8347;52.486;13.432;2023-05-29T13:19:19;5.10;;;2.45;;
16472;SDS011;8347;52.486;13.432;2023-05-29T13:22:05;5.07;;;2.83;;
16472;SDS011;8347;52.486;13.432;2023-05-29T13:24:52;5.35;;;2.97;;
16472;SDS011;8347;52.486;13.432;2023-05-29T13:27:40;5.00;;;2.58;;
16472;SDS011;8347;52.486;13.432;2023-05-29T13:30:27;4.25;;;2.30;;
16472;SDS011;8347;52.486;13.432;2023-05-29T13:33:13;5.85;;;2.65;;
16472;SDS011;8347;52.486;13.432;2023-05-29T13:36:00;6.28;;;2.53;;
16472;SDS011;8347;52.486;13.432;2023-05-29T13:38:46;6.55;;;2.60;;
16472;SDS011;8347;52.486;13.432;2023-05-29T13:41:33;6.28;;;2.85;;
16472;SDS011;8347;52.486;13.432;2023-05-29T13:44:20;3.67;;;2.25;;
16472;SDS011;8347;52.486;13.432;2023-05-29T13:47:07;6.72;;;2.50;;
16472;SDS011;8347;52.486;13.432;2023-05-29T13:49:53;8.85;;;2.47;;
16472;SDS011;8347;52.486;13.432;2023-05-29T13:52:40;4.85;;;2.22;;
16472;SDS011;8347;52.486;13.432;2023-05-29T13:55:26;5.88;;;2.72;;
16472;SDS011;8347;52.486;13.432;2023-05-29T13:58:13;5.50;;;2.85;;
16472;SDS011;8347;52.486;13.432;2023-05-29T14:01:00;6.82;;;3.42;;
16472;SDS011;8347;52.486;13.432;2023-05-29T14:03:46;4.70;;;2.33;;
16472;SDS011;8347;52.486;13.432;2023-05-29T14:06:33;5.45;;;2.45;;
16472;SDS011;8347;52.486;13.432;2023-05-29T14:09:20;4.90;;;3.15;;
16472;SDS011;8347;52.486;13.432;2023-05-29T14:12:12;4.95;;;2.60;;
16472;SDS011;8347;52.486;13.432;2023-05-29T14:14:59;6.15;;;2.28;;
16472;SDS011;8347;52.486;13.432;2023-05-29T14:17:46;5.80;;;3.55;;
16472;SDS011;8347;52.486;13.432;2023-05-29T14:20:32;5.38;;;2.63;;
16472;SDS011;8347;52.486;13.432;2023-05-29T14:23:19;3.95;;;2.30;;
16472;SDS011;8347;52.486;13.432;2023-05-29T14:26:05;3.60;;;2.88;;
16472;SDS011;8347;52.486;13.432;2023-05-29T14:28:52;4.60;;;2.85;;
16472;SDS011;8347;52.486;13.432;2023-05-29T14:31:39;9.50;;;3.03;;
16472;SDS011;8347;52.486;13.432;2023-05-29T14:34:25;10.23;;;4.25;;
16472;SDS011;8347;52.486;13.432;2023-05-29T14:37:12;8.65;;;5.20;;
16472;SDS011;8347;52.486;13.432;2023-05-29T14:39:58;7.05;;;3.45;;
16472;SDS011;8347;52.486;13.432;2023-05-29T14:42:45;6.03;;;2.95;;
16472;SDS011;8347;52.486;13.432;2023-05-29T14:45:31;5.40;;;3.03;;
16472;SDS011;8347;52.486;13.432;2023-05-29T14:48:18;6.95;;;2.83;;
16472;SDS011;8347;52.486;13.432;2023-05-29T14:51:05;4.07;;;2.08;;
16472;SDS011;8347;52.486;13.432;2023-05-29T14:53:51;6.40;;;3.17;;
16472;SDS011;8347;52.486;13.432;2023-05-29T14:56:38;3.38;;;2.13;;
16472;SDS011;8347;52.486;13.432;2023-05-29T14:59:25;5.97;;;2.85;;
16472;SDS011;8347;52.486;13.432;2023-05-29T15:02:11;4.43;;;2.40;;
16472;SDS011;8347;52.486;13.432;2023-05-29T15:04:58;7.15;;;2.38;;
16472;SDS011;8347;52.486;13.432;2023-05-29T15:07:45;4.65;;;2.25;;
16472;SDS011;8347;52.486;13.432;2023-05-29T15:10:32;6.93;;;2.15;;
16472;SDS011;8347;52.486;13.432;2023-05-29T15:13:18;6.53;;;2.45;;
16472;SDS011;8347;52.486;13.432;2023-05-29T15:16:05;3.40;;;2.30;;
16472;SDS011;8347;52.486;13.432;2023-05-29T15:18:52;6.68;;;2.50;;
16472;SDS011;8347;52.486;13.432;2023-05-29T15:21:38;4.47;;;1.92;;
16472;SDS011;8347;52.486;13.432;2023-05-29T15:24:25;4.65;;;2.30;;
16472;SDS011;8347;52.486;13.432;2023-05-29T15:27:11;3.65;;;2.10;;
16472;SDS011;8347;52.486;13.432;2023-05-29T15:30:08;6.28;;;2.58;;
16472;SDS011;8347;52.486;13.432;2023-05-29T15:32:55;6.47;;;2.63;;
16472;SDS011;8347;52.486;13.432;2023-05-29T15:35:42;3.58;;;1.98;;
16472;SDS011;8347;52.486;13.432;2023-05-29T15:38:28;3.80;;;1.70;;
16472;SDS011;8347;52.486;13.432;2023-05-29T15:41:18;5.53;;;2.38;;
16472;SDS011;8347;52.486;13.432;2023-05-29T15:44:04;4.10;;;1.98;;
16472;SDS011;8347;52.486;13.432;2023-05-29T15:46:51;8.82;;;2.90;;
16472;SDS011;8347;52.486;13.432;2023-05-29T15:49:38;4.82;;;2.10;;
16472;SDS011;8347;52.486;13.432;2023-05-29T15:52:25;4.90;;;1.85;;
16472;SDS011;8347;52.486;13.432;2023-05-29T15:55:12;8.15;;;3.28;;
16472;SDS011;8347;52.486;13.432;2023-05-29T15:57:58;4.13;;;2.10;;
16472;SDS011;8347;52.486;13.432;2023-05-29T16:00:45;4.78;;;2.10;;
16472;SDS011;8347;52.486;13.432;2023-05-29T16:03:32;6.40;;;2.40;;
16472;SDS011;8347;52.486;13.432;2023-05-29T16:06:18;7.22;;;2.72;;
16472;SDS011;8347;52.486;13.432;2023-05-29T16:09:04;3.55;;;1.95;;
16472;SDS011;8347;52.486;13.432;2023-05-29T16:11:50;7.55;;;2.28;;
16472;SDS011;8347;52.486;13.432;2023-05-29T16:14:37;5.72;;;2.22;;
16472;SDS011;8347;52.486;13.432;2023-05-29T16:17:25;6.18;;;1.83;;
16472;SDS011;8347;52.486;13.432;2023-05-29T16:20:11;4.95;;;2.10;;
16472;SDS011;8347;52.486;13.432;2023-05-29T16:22:58;4.38;;;1.95;;
16472;SDS011;8347;52.486;13.432;2023-05-29T16:25:45;2.75;;;2.00;;
16472;SDS011;8347;52.486;13.432;2023-05-29T16:28:31;3.83;;;2.65;;
16472;SDS011;8347;52.486;13.432;2023-05-29T16:31:18;7.20;;;2.60;;
16472;SDS011;8347;52.486;13.432;2023-05-29T16:34:04;6.43;;;2.60;;
16472;SDS011;8347;52.486;13.432;2023-05-29T16:36:51;5.82;;;2.10;;
16472;SDS011;8347;52.486;13.432;2023-05-29T16:39:37;3.67;;;1.98;;
16472;SDS011;8347;52.486;13.432;2023-05-29T16:42:24;5.68;;;2.78;;
16472;SDS011;8347;52.486;13.432;2023-05-29T16:45:10;6.60;;;2.63;;
16472;SDS011;8347;52.486;13.432;2023-05-29T16:47:57;4.95;;;2.60;;
16472;SDS011;8347;52.486;13.432;2023-05-29T16:50:43;6.65;;;2.33;;
16472;SDS011;8347;52.486;13.432;2023-05-29T16:53:30;4.88;;;2.53;;
16472;SDS011;8347;52.486;13.432;2023-05-29T16:56:17;8.23;;;2.88;;
16472;SDS011;8347;52.486;13.432;2023-05-29T16:59:04;6.25;;;2.90;;
16472;SDS011;8347;52.486;13.432;2023-05-29T17:01:51;7.45;;;3.33;;
16472;SDS011;8347;52.486;13.432;2023-05-29T17:04:37;5.40;;;2.30;;
16472;SDS011;8347;52.486;13.432;2023-05-29T17:07:24;6.72;;;2.78;;
16472;SDS011;8347;52.486;13.432;2023-05-29T17:10:11;6.68;;;3.83;;
16472;SDS011;8347;52.486;13.432;2023-05-29T17:12:58;5.97;;;2.63;;